»·PEaware :: N2442P KAVX-KVNY

N2442P :: KAVX-KVNY

FLIGHT INFORMATION

Flight Status: Arrived
Operator: Privately registered:
United States
More flights under this callsign
Pilot: Ken Q. (14290)
Aircraft: MOONEY M-20K/M ENCORE BRAVO
(M20T)
More flights by this aircraft type
Origin: KAVX Catalina
United States
Destination: KVNY Van Nuys
United States
More flights between these airports :: More routes between these airports
Route: KAVX VTU VNY KVNY
File this flight plan on PilotEdge
Remarks: ROUTE TO AVOID KLAX BRAVO
Altitude:
(Current/Filed)
6,500ft
Speed:
(Current/Filed)
165kts
Departed: 04-Mar-17 08:58 AM
Arrived: 04-Mar-17 09:37 AM
Distance/Time
Traveled:
49nm/0:38
Distance/Time
To Go:
Arrived

Flight Plot

Page will automatically refresh every two minutes.

Flight plan parsing failed; only flown route is shown


Map Options




Map Legend


Flown Route
Filed Route
Departure Airport
Arrival Airport
Navaid (VOR, NDB)
Fix

Horizontal Profiles

Position Reports

Time Latitude Longitude Heading Altitude Ground
Speed
04-Mar-17 08:34 33.403675 -118.415800 149 1605ft 0kts
04-Mar-17 08:35 33.403675 -118.415800 149 1605ft 0kts
04-Mar-17 08:36 33.403675 -118.415800 149 1605ft 0kts
04-Mar-17 08:37 33.403675 -118.415800 149 1605ft 0kts
04-Mar-17 08:38 33.403675 -118.415800 149 1605ft 0kts
04-Mar-17 08:39 33.403675 -118.415800 149 1605ft 0kts
04-Mar-17 08:40 33.403675 -118.415800 149 1605ft 0kts
04-Mar-17 08:41 33.403675 -118.415800 149 1605ft 0kts
04-Mar-17 08:42 33.403675 -118.415800 149 1605ft 0kts
04-Mar-17 08:43 33.403675 -118.415800 149 1605ft 0kts
04-Mar-17 08:44 33.403675 -118.415800 149 1605ft 0kts
04-Mar-17 08:45 33.403675 -118.415800 149 1605ft 0kts
04-Mar-17 08:46 33.403675 -118.415800 149 1605ft 0kts
04-Mar-17 08:47 33.403675 -118.415800 149 1605ft 0kts
04-Mar-17 08:48 33.403675 -118.415800 149 1605ft 0kts
04-Mar-17 08:49 33.403675 -118.415800 149 1605ft 0kts
04-Mar-17 08:50 33.403675 -118.415800 149 1605ft 0kts
04-Mar-17 08:51 33.403675 -118.415800 149 1605ft 0kts
04-Mar-17 08:52 33.403674 -118.415800 149 1605ft 0kts
04-Mar-17 08:53 33.403674 -118.415799 149 1605ft 0kts
04-Mar-17 08:54 33.403674 -118.415799 149 1605ft 0kts
04-Mar-17 08:55 33.404743 -118.415245 300 1605ft 15kts
04-Mar-17 08:56 33.402785 -118.418816 234 1605ft 10kts
04-Mar-17 08:57 33.402396 -118.419467 234 1605ft 0kts
04-Mar-17 08:58 33.402389 -118.419478 232 1605ft 1kts
04-Mar-17 08:59 33.404778 -118.416160 55 1605ft 69kts
04-Mar-17 09:00 33.427657 -118.405809 324 2119ft 128kts
04-Mar-17 09:01 33.451241 -118.440637 304 2754ft 138kts
04-Mar-17 09:02 33.473007 -118.478847 303 3356ft 139kts
04-Mar-17 09:03 33.495267 -118.517124 303 3956ft 140kts
04-Mar-17 09:04 33.518159 -118.555251 307 4556ft 142kts
04-Mar-17 09:05 33.546449 -118.588623 313 5159ft 143kts
04-Mar-17 09:06 33.576575 -118.620825 317 5764ft 146kts
04-Mar-17 09:07 33.608955 -118.650576 320 6362ft 146kts
04-Mar-17 09:08 33.632074 -118.670422 320 6511ft 161kts
04-Mar-17 09:09 33.670257 -118.703747 320 6506ft 175kts
04-Mar-17 09:10 33.709826 -118.738744 320 6508ft 177kts
04-Mar-17 09:11 33.749833 -118.774169 320 6509ft 178kts
04-Mar-17 09:12 33.790255 -118.808866 322 6508ft 179kts
04-Mar-17 09:13 33.831306 -118.842715 322 6507ft 179kts
04-Mar-17 09:14 33.872335 -118.876545 322 6509ft 179kts
04-Mar-17 09:15 33.913490 -118.910467 322 6510ft 178kts
04-Mar-17 09:16 33.956247 -118.941112 328 6513ft 179kts
04-Mar-17 09:17 33.996223 -118.967301 328 6514ft 179kts
04-Mar-17 09:18 34.039999 -118.995974 328 6515ft 179kts
04-Mar-17 09:19 34.083818 -119.024669 328 6516ft 179kts
04-Mar-17 09:20 34.118900 -119.046447 345 6504ft 165kts
04-Mar-17 09:21 34.148139 -119.009845 68 6179ft 165kts
04-Mar-17 09:22 34.165926 -118.958488 68 5683ft 165kts
04-Mar-17 09:23 34.181355 -118.906574 82 5191ft 163kts
04-Mar-17 09:24 34.186784 -118.852316 84 4688ft 161kts
04-Mar-17 09:25 34.191701 -118.799027 84 4235ft 159kts
04-Mar-17 09:26 34.196560 -118.746699 85 3834ft 155kts
04-Mar-17 09:27 34.200735 -118.701969 84 3442ft 141kts
04-Mar-17 09:28 34.204623 -118.658457 85 2803ft 112kts
04-Mar-17 09:29 34.207375 -118.624576 85 2155ft 94kts
04-Mar-17 09:30 34.209826 -118.593901 84 1800ft 92kts
04-Mar-17 09:31 34.212603 -118.561194 84 1802ft 102kts
04-Mar-17 09:32 34.233942 -118.549376 354 1802ft 106kts
04-Mar-17 09:33 34.263670 -118.553873 356 1798ft 108kts
04-Mar-17 09:34 34.272983 -118.524484 88 1800ft 105kts
04-Mar-17 09:35 34.264639 -118.497514 166 1764ft 96kts
04-Mar-17 09:36 34.240186 -118.493398 172 1463ft 86kts
04-Mar-17 09:37 34.216708 -118.491083 174 880ft 76kts
04-Mar-17 09:38 34.208915 -118.490309 174 805ft 17kts
04-Mar-17 09:39 34.206670 -118.490774 262 805ft 0kts
04-Mar-17 09:40 34.208652 -118.491507 354 805ft 10kts
04-Mar-17 09:41 34.211467 -118.491803 354 805ft 18kts
04-Mar-17 09:42 34.217266 -118.492923 285 805ft 7kts
04-Mar-17 09:43 34.217002 -118.494289 186 805ft 0kts
04-Mar-17 09:44 34.216730 -118.494334 185 805ft 0kts
04-Mar-17 09:45 34.216730 -118.494334 185 805ft 0kts

Navigation Log

Ident Type
Flight plan parsing failed, navigation log unavailable